sensor_id;sensor_type;location;lat;lon;timestamp;P1;durP1;ratioP1;P2;durP2;ratioP2
70228;SDS011;57617;51.988;5.854;2022-08-18T00:00:42;45.50;;;31.40;;
70228;SDS011;57617;51.988;5.854;2022-08-18T00:03:09;46.35;;;31.30;;
70228;SDS011;57617;51.988;5.854;2022-08-18T00:05:35;44.85;;;31.55;;
70228;SDS011;57617;51.988;5.854;2022-08-18T00:08:02;47.80;;;32.40;;
70228;SDS011;57617;51.988;5.854;2022-08-18T00:10:29;50.13;;;32.90;;
70228;SDS011;57617;51.988;5.854;2022-08-18T00:12:55;49.30;;;33.00;;
70228;SDS011;57617;51.988;5.854;2022-08-18T00:15:21;49.75;;;33.53;;
70228;SDS011;57617;51.988;5.854;2022-08-18T00:17:47;49.67;;;31.95;;
70228;SDS011;57617;51.988;5.854;2022-08-18T00:20:14;49.53;;;31.67;;
70228;SDS011;57617;51.988;5.854;2022-08-18T00:22:41;47.80;;;30.85;;
70228;SDS011;57617;51.988;5.854;2022-08-18T00:25:07;46.78;;;30.25;;
70228;SDS011;57617;51.988;5.854;2022-08-18T00:27:35;47.30;;;31.05;;
70228;SDS011;57617;51.988;5.854;2022-08-18T00:30:04;49.05;;;30.30;;
70228;SDS011;57617;51.988;5.854;2022-08-18T00:32:32;43.15;;;30.02;;
70228;SDS011;57617;51.988;5.854;2022-08-18T00:35:20;42.08;;;29.30;;
70228;SDS011;57617;51.988;5.854;2022-08-18T00:38:04;45.03;;;29.17;;
70228;SDS011;57617;51.988;5.854;2022-08-18T00:40:53;42.38;;;29.58;;
70228;SDS011;57617;51.988;5.854;2022-08-18T00:43:22;43.60;;;28.10;;
70228;SDS011;57617;51.988;5.854;2022-08-18T00:45:53;47.25;;;29.05;;
70228;SDS011;57617;51.988;5.854;2022-08-18T00:48:19;45.28;;;29.25;;
70228;SDS011;57617;51.988;5.854;2022-08-18T00:53:19;43.67;;;28.30;;
70228;SDS011;57617;51.988;5.854;2022-08-18T00:55:51;41.00;;;27.70;;
70228;SDS011;57617;51.988;5.854;2022-08-18T00:58:20;39.42;;;28.48;;
70228;SDS011;57617;51.988;5.854;2022-08-18T01:00:51;43.33;;;28.02;;
70228;SDS011;57617;51.988;5.854;2022-08-18T01:03:17;40.30;;;28.25;;
70228;SDS011;57617;51.988;5.854;2022-08-18T01:05:55;39.13;;;26.02;;
70228;SDS011;57617;51.988;5.854;2022-08-18T01:08:27;44.47;;;26.98;;
70228;SDS011;57617;51.988;5.854;2022-08-18T01:10:52;38.50;;;26.63;;
70228;SDS011;57617;51.988;5.854;2022-08-18T01:13:18;37.47;;;25.67;;
70228;SDS011;57617;51.988;5.854;2022-08-18T01:15:44;35.30;;;24.60;;
70228;SDS011;57617;51.988;5.854;2022-08-18T01:18:10;35.38;;;24.55;;
70228;SDS011;57617;51.988;5.854;2022-08-18T01:24:00;36.38;;;23.35;;
70228;SDS011;57617;51.988;5.854;2022-08-18T01:26:28;33.30;;;23.02;;
70228;SDS011;57617;51.988;5.854;2022-08-18T01:29:02;32.58;;;22.58;;
70228;SDS011;57617;51.988;5.854;2022-08-18T01:31:33;32.08;;;23.27;;
70228;SDS011;57617;51.988;5.854;2022-08-18T01:34:11;32.63;;;21.85;;
70228;SDS011;57617;51.988;5.854;2022-08-18T01:36:37;34.28;;;21.77;;
70228;SDS011;57617;51.988;5.854;2022-08-18T01:39:06;29.17;;;20.27;;
70228;SDS011;57617;51.988;5.854;2022-08-18T01:41:32;26.67;;;19.50;;
70228;SDS011;57617;51.988;5.854;2022-08-18T01:43:58;30.65;;;18.48;;
70228;SDS011;57617;51.988;5.854;2022-08-18T01:46:25;26.15;;;18.80;;
70228;SDS011;57617;51.988;5.854;2022-08-18T01:48:51;29.05;;;18.70;;
70228;SDS011;57617;51.988;5.854;2022-08-18T01:51:18;25.45;;;18.42;;
70228;SDS011;57617;51.988;5.854;2022-08-18T01:53:45;25.20;;;18.27;;
70228;SDS011;57617;51.988;5.854;2022-08-18T01:56:12;26.27;;;17.98;;
70228;SDS011;57617;51.988;5.854;2022-08-18T01:58:41;24.10;;;17.15;;
70228;SDS011;57617;51.988;5.854;2022-08-18T02:01:07;26.00;;;17.85;;
70228;SDS011;57617;51.988;5.854;2022-08-18T02:03:37;24.42;;;17.67;;
70228;SDS011;57617;51.988;5.854;2022-08-18T02:06:07;25.27;;;17.70;;
70228;SDS011;57617;51.988;5.854;2022-08-18T02:08:35;25.95;;;17.70;;
70228;SDS011;57617;51.988;5.854;2022-08-18T02:11:01;27.30;;;17.80;;
70228;SDS011;57617;51.988;5.854;2022-08-18T02:13:27;25.55;;;18.00;;
70228;SDS011;57617;51.988;5.854;2022-08-18T02:15:53;22.15;;;17.02;;
70228;SDS011;57617;51.988;5.854;2022-08-18T02:18:25;25.83;;;17.23;;
70228;SDS011;57617;51.988;5.854;2022-08-18T02:20:53;28.05;;;17.95;;
70228;SDS011;57617;51.988;5.854;2022-08-18T02:23:19;26.80;;;18.50;;
70228;SDS011;57617;51.988;5.854;2022-08-18T02:25:45;23.73;;;17.40;;
70228;SDS011;57617;51.988;5.854;2022-08-18T02:28:11;30.65;;;17.95;;
70228;SDS011;57617;51.988;5.854;2022-08-18T02:30:36;27.17;;;17.40;;
70228;SDS011;57617;51.988;5.854;2022-08-18T02:33:05;28.75;;;18.55;;
70228;SDS011;57617;51.988;5.854;2022-08-18T02:35:32;25.60;;;17.98;;
70228;SDS011;57617;51.988;5.854;2022-08-18T02:37:59;28.35;;;18.58;;
70228;SDS011;57617;51.988;5.854;2022-08-18T02:40:25;26.80;;;17.83;;
70228;SDS011;57617;51.988;5.854;2022-08-18T02:42:50;25.88;;;18.10;;
70228;SDS011;57617;51.988;5.854;2022-08-18T02:45:17;27.38;;;17.58;;
70228;SDS011;57617;51.988;5.854;2022-08-18T02:47:42;25.90;;;17.55;;
70228;SDS011;57617;51.988;5.854;2022-08-18T02:50:09;24.95;;;17.67;;
70228;SDS011;57617;51.988;5.854;2022-08-18T02:52:34;26.20;;;18.13;;
70228;SDS011;57617;51.988;5.854;2022-08-18T02:55:00;23.65;;;16.60;;
70228;SDS011;57617;51.988;5.854;2022-08-18T02:57:26;25.63;;;17.83;;
70228;SDS011;57617;51.988;5.854;2022-08-18T02:59:52;23.67;;;16.30;;
70228;SDS011;57617;51.988;5.854;2022-08-18T03:02:19;24.13;;;16.35;;
70228;SDS011;57617;51.988;5.854;2022-08-18T03:04:45;26.73;;;16.40;;
70228;SDS011;57617;51.988;5.854;2022-08-18T03:07:10;23.27;;;14.95;;
70228;SDS011;57617;51.988;5.854;2022-08-18T03:09:36;21.27;;;15.20;;
70228;SDS011;57617;51.988;5.854;2022-08-18T03:12:02;24.73;;;15.57;;
70228;SDS011;57617;51.988;5.854;2022-08-18T03:14:27;23.95;;;15.25;;
70228;SDS011;57617;51.988;5.854;2022-08-18T03:16:53;23.63;;;15.02;;
70228;SDS011;57617;51.988;5.854;2022-08-18T03:19:19;22.92;;;15.10;;
70228;SDS011;57617;51.988;5.854;2022-08-18T03:21:45;23.42;;;15.13;;
70228;SDS011;57617;51.988;5.854;2022-08-18T03:24:11;24.55;;;14.70;;
70228;SDS011;57617;51.988;5.854;2022-08-18T03:26:41;21.77;;;14.93;;
70228;SDS011;57617;51.988;5.854;2022-08-18T03:29:09;21.95;;;15.07;;
70228;SDS011;57617;51.988;5.854;2022-08-18T03:31:35;22.77;;;15.00;;
70228;SDS011;57617;51.988;5.854;2022-08-18T03:34:03;23.33;;;15.10;;
70228;SDS011;57617;51.988;5.854;2022-08-18T03:36:30;24.10;;;15.20;;
70228;SDS011;57617;51.988;5.854;2022-08-18T03:38:57;21.05;;;14.75;;
70228;SDS011;57617;51.988;5.854;2022-08-18T03:41:24;22.02;;;15.50;;
70228;SDS011;57617;51.988;5.854;2022-08-18T03:43:51;21.80;;;15.00;;
70228;SDS011;57617;51.988;5.854;2022-08-18T03:46:17;21.48;;;14.82;;
70228;SDS011;57617;51.988;5.854;2022-08-18T03:48:44;21.52;;;15.73;;
70228;SDS011;57617;51.988;5.854;2022-08-18T03:51:18;23.08;;;14.35;;
70228;SDS011;57617;51.988;5.854;2022-08-18T03:53:46;23.70;;;14.60;;
70228;SDS011;57617;51.988;5.854;2022-08-18T03:56:13;24.92;;;14.95;;
70228;SDS011;57617;51.988;5.854;2022-08-18T03:58:42;23.55;;;15.30;;
70228;SDS011;57617;51.988;5.854;2022-08-18T04:01:12;23.45;;;15.07;;
70228;SDS011;57617;51.988;5.854;2022-08-18T04:03:42;23.02;;;13.95;;
70228;SDS011;57617;51.988;5.854;2022-08-18T04:06:55;20.58;;;14.40;;
70228;SDS011;57617;51.988;5.854;2022-08-18T04:09:05;26.02;;;15.45;;
70228;SDS011;57617;51.988;5.854;2022-08-18T04:11:33;25.27;;;15.85;;
70228;SDS011;57617;51.988;5.854;2022-08-18T04:14:00;23.35;;;15.50;;
70228;SDS011;57617;51.988;5.854;2022-08-18T04:16:26;23.00;;;15.07;;
70228;SDS011;57617;51.988;5.854;2022-08-18T04:18:53;22.98;;;15.27;;
70228;SDS011;57617;51.988;5.854;2022-08-18T04:21:23;23.25;;;15.15;;
70228;SDS011;57617;51.988;5.854;2022-08-18T04:23:49;22.20;;;14.90;;
70228;SDS011;57617;51.988;5.854;2022-08-18T04:26:14;22.60;;;15.70;;
70228;SDS011;57617;51.988;5.854;2022-08-18T04:28:42;19.58;;;14.80;;
70228;SDS011;57617;51.988;5.854;2022-08-18T04:31:08;23.73;;;15.40;;
70228;SDS011;57617;51.988;5.854;2022-08-18T04:33:36;24.33;;;14.73;;
70228;SDS011;57617;51.988;5.854;2022-08-18T04:36:06;20.98;;;14.93;;
70228;SDS011;57617;51.988;5.854;2022-08-18T04:38:33;24.13;;;15.00;;
70228;SDS011;57617;51.988;5.854;2022-08-18T04:40:58;24.88;;;15.82;;
70228;SDS011;57617;51.988;5.854;2022-08-18T04:43:24;25.60;;;16.08;;
70228;SDS011;57617;51.988;5.854;2022-08-18T04:45:49;22.73;;;15.77;;
70228;SDS011;57617;51.988;5.854;2022-08-18T04:48:15;25.63;;;17.52;;
70228;SDS011;57617;51.988;5.854;2022-08-18T04:50:41;24.58;;;17.50;;
70228;SDS011;57617;51.988;5.854;2022-08-18T04:53:07;29.42;;;18.70;;
70228;SDS011;57617;51.988;5.854;2022-08-18T04:55:52;27.92;;;18.67;;
70228;SDS011;57617;51.988;5.854;2022-08-18T04:58:20;30.48;;;19.02;;
70228;SDS011;57617;51.988;5.854;2022-08-18T05:00:54;31.65;;;20.40;;
70228;SDS011;57617;51.988;5.854;2022-08-18T05:03:24;32.67;;;20.60;;
70228;SDS011;57617;51.988;5.854;2022-08-18T05:05:51;30.30;;;20.55;;
70228;SDS011;57617;51.988;5.854;2022-08-18T05:08:22;33.30;;;20.42;;
70228;SDS011;57617;51.988;5.854;2022-08-18T05:10:51;33.67;;;20.60;;
70228;SDS011;57617;51.988;5.854;2022-08-18T05:13:17;34.65;;;21.05;;
70228;SDS011;57617;51.988;5.854;2022-08-18T05:15:43;28.88;;;20.58;;
70228;SDS011;57617;51.988;5.854;2022-08-18T05:18:09;30.95;;;20.27;;
70228;SDS011;57617;51.988;5.854;2022-08-18T05:20:35;29.55;;;20.42;;
70228;SDS011;57617;51.988;5.854;2022-08-18T05:23:02;32.67;;;19.73;;
70228;SDS011;57617;51.988;5.854;2022-08-18T05:25:27;31.55;;;20.63;;
70228;SDS011;57617;51.988;5.854;2022-08-18T05:27:53;32.03;;;20.45;;
70228;SDS011;57617;51.988;5.854;2022-08-18T05:30:19;34.35;;;19.17;;
70228;SDS011;57617;51.988;5.854;2022-08-18T05:32:45;31.10;;;19.33;;
70228;SDS011;57617;51.988;5.854;2022-08-18T05:35:12;27.80;;;18.30;;
70228;SDS011;57617;51.988;5.854;2022-08-18T05:40:36;30.88;;;17.58;;
70228;SDS011;57617;51.988;5.854;2022-08-18T05:43:01;26.58;;;16.63;;
70228;SDS011;57617;51.988;5.854;2022-08-18T05:45:28;26.27;;;17.25;;
70228;SDS011;57617;51.988;5.854;2022-08-18T05:47:57;26.45;;;16.27;;
70228;SDS011;57617;51.988;5.854;2022-08-18T05:50:27;28.50;;;17.15;;
70228;SDS011;57617;51.988;5.854;2022-08-18T05:52:57;26.15;;;16.35;;
70228;SDS011;57617;51.988;5.854;2022-08-18T05:55:30;27.58;;;17.55;;
70228;SDS011;57617;51.988;5.854;2022-08-18T05:58:31;32.65;;;16.70;;
70228;SDS011;57617;51.988;5.854;2022-08-18T06:01:00;31.35;;;17.55;;
70228;SDS011;57617;51.988;5.854;2022-08-18T06:03:30;30.70;;;17.92;;
70228;SDS011;57617;51.988;5.854;2022-08-18T06:06:04;28.50;;;17.05;;
70228;SDS011;57617;51.988;5.854;2022-08-18T06:08:39;26.65;;;17.58;;
70228;SDS011;57617;51.988;5.854;2022-08-18T06:11:09;26.00;;;16.80;;
70228;SDS011;57617;51.988;5.854;2022-08-18T06:13:36;23.92;;;17.08;;
70228;SDS011;57617;51.988;5.854;2022-08-18T06:18:36;24.83;;;16.20;;
70228;SDS011;57617;51.988;5.854;2022-08-18T06:21:45;23.25;;;16.17;;
70228;SDS011;57617;51.988;5.854;2022-08-18T06:32:36;25.70;;;15.40;;
70228;SDS011;57617;51.988;5.854;2022-08-18T06:37:54;24.83;;;14.68;;
70228;SDS011;57617;51.988;5.854;2022-08-18T06:40:41;21.85;;;13.70;;
70228;SDS011;57617;51.988;5.854;2022-08-18T06:43:08;19.55;;;13.55;;
70228;SDS011;57617;51.988;5.854;2022-08-18T06:45:39;21.17;;;13.88;;
70228;SDS011;57617;51.988;5.854;2022-08-18T06:48:10;24.88;;;13.85;;
70228;SDS011;57617;51.988;5.854;2022-08-18T06:50:46;20.83;;;13.98;;
70228;SDS011;57617;51.988;5.854;2022-08-18T06:53:15;20.42;;;13.82;;
70228;SDS011;57617;51.988;5.854;2022-08-18T06:55:43;23.23;;;13.25;;
70228;SDS011;57617;51.988;5.854;2022-08-18T07:00:35;17.90;;;13.33;;
70228;SDS011;57617;51.988;5.854;2022-08-18T07:03:13;18.25;;;13.63;;
70228;SDS011;57617;51.988;5.854;2022-08-18T07:06:01;22.08;;;13.18;;
70228;SDS011;57617;51.988;5.854;2022-08-18T07:08:34;19.98;;;12.82;;
70228;SDS011;57617;51.988;5.854;2022-08-18T07:13:50;20.55;;;12.07;;
70228;SDS011;57617;51.988;5.854;2022-08-18T07:18:51;16.63;;;12.05;;
70228;SDS011;57617;51.988;5.854;2022-08-18T07:21:23;15.98;;;12.25;;
70228;SDS011;57617;51.988;5.854;2022-08-18T07:23:58;15.70;;;10.68;;
70228;SDS011;57617;51.988;5.854;2022-08-18T07:26:26;18.10;;;11.10;;
70228;SDS011;57617;51.988;5.854;2022-08-18T07:28:52;14.48;;;10.40;;
70228;SDS011;57617;51.988;5.854;2022-08-18T07:34:05;13.50;;;10.85;;
70228;SDS011;57617;51.988;5.854;2022-08-18T07:36:38;16.75;;;10.18;;
70228;SDS011;57617;51.988;5.854;2022-08-18T07:39:19;18.80;;;11.27;;
70228;SDS011;57617;51.988;5.854;2022-08-18T07:41:49;14.93;;;10.65;;
70228;SDS011;57617;51.988;5.854;2022-08-18T07:49:32;17.65;;;10.05;;
70228;SDS011;57617;51.988;5.854;2022-08-18T07:52:06;13.85;;;9.80;;
70228;SDS011;57617;51.988;5.854;2022-08-18T07:57:55;13.20;;;10.10;;
70228;SDS011;57617;51.988;5.854;2022-08-18T08:00:28;16.13;;;9.60;;
70228;SDS011;57617;51.988;5.854;2022-08-18T08:05:42;15.48;;;10.63;;
70228;SDS011;57617;51.988;5.854;2022-08-18T08:11:22;15.65;;;10.30;;
70228;SDS011;57617;51.988;5.854;2022-08-18T08:14:05;12.65;;;9.40;;
70228;SDS011;57617;51.988;5.854;2022-08-18T08:19:26;12.90;;;9.23;;
70228;SDS011;57617;51.988;5.854;2022-08-18T08:22:04;16.35;;;9.27;;
70228;SDS011;57617;51.988;5.854;2022-08-18T08:30:16;11.77;;;8.52;;
70228;SDS011;57617;51.988;5.854;2022-08-18T08:35:18;11.85;;;8.20;;
70228;SDS011;57617;51.988;5.854;2022-08-18T08:38:01;12.18;;;8.35;;
70228;SDS011;57617;51.988;5.854;2022-08-18T08:40:38;14.15;;;7.65;;
70228;SDS011;57617;51.988;5.854;2022-08-18T08:43:06;13.45;;;7.82;;
70228;SDS011;57617;51.988;5.854;2022-08-18T08:45:37;12.60;;;7.95;;
70228;SDS011;57617;51.988;5.854;2022-08-18T08:48:08;11.30;;;7.78;;
70228;SDS011;57617;51.988;5.854;2022-08-18T08:50:58;10.57;;;7.10;;
70228;SDS011;57617;51.988;5.854;2022-08-18T08:56:05;11.98;;;7.65;;
70228;SDS011;57617;51.988;5.854;2022-08-18T08:58:42;11.68;;;7.57;;
70228;SDS011;57617;51.988;5.854;2022-08-18T09:01:55;10.88;;;7.18;;
70228;SDS011;57617;51.988;5.854;2022-08-18T09:04:13;9.90;;;6.85;;
70228;SDS011;57617;51.988;5.854;2022-08-18T09:09:45;13.57;;;7.10;;
70228;SDS011;57617;51.988;5.854;2022-08-18T09:12:24;9.00;;;6.05;;
70228;SDS011;57617;51.988;5.854;2022-08-18T09:23:43;10.75;;;6.68;;
70228;SDS011;57617;51.988;5.854;2022-08-18T09:27:10;9.88;;;6.07;;
70228;SDS011;57617;51.988;5.854;2022-08-18T09:29:13;8.73;;;6.15;;
70228;SDS011;57617;51.988;5.854;2022-08-18T09:31:38;11.93;;;5.70;;
70228;SDS011;57617;51.988;5.854;2022-08-18T09:34:18;9.45;;;6.30;;
70228;SDS011;57617;51.988;5.854;2022-08-18T09:39:42;9.00;;;5.88;;
70228;SDS011;57617;51.988;5.854;2022-08-18T09:48:38;8.23;;;6.25;;
70228;SDS011;57617;51.988;5.854;2022-08-18T09:51:49;8.30;;;6.00;;
70228;SDS011;57617;51.988;5.854;2022-08-18T09:54:10;7.93;;;5.90;;
70228;SDS011;57617;51.988;5.854;2022-08-18T10:02:10;8.35;;;5.70;;
70228;SDS011;57617;51.988;5.854;2022-08-18T10:07:40;8.82;;;6.20;;
70228;SDS011;57617;51.988;5.854;2022-08-18T10:15:32;7.70;;;5.35;;
70228;SDS011;57617;51.988;5.854;2022-08-18T10:28:59;8.07;;;5.70;;
70228;SDS011;57617;51.988;5.854;2022-08-18T10:31:28;7.93;;;5.70;;
70228;SDS011;57617;51.988;5.854;2022-08-18T10:36:32;7.85;;;5.28;;
70228;SDS011;57617;51.988;5.854;2022-08-18T10:39:21;9.25;;;5.50;;
70228;SDS011;57617;51.988;5.854;2022-08-18T10:41:54;10.05;;;5.15;;
70228;SDS011;57617;51.988;5.854;2022-08-18T10:44:24;7.25;;;5.65;;
70228;SDS011;57617;51.988;5.854;2022-08-18T10:46:51;6.50;;;5.80;;
70228;SDS011;57617;51.988;5.854;2022-08-18T10:49:21;6.47;;;5.68;;
70228;SDS011;57617;51.988;5.854;2022-08-18T10:51:56;8.35;;;6.13;;
70228;SDS011;57617;51.988;5.854;2022-08-18T10:57:29;12.65;;;6.05;;
70228;SDS011;57617;51.988;5.854;2022-08-18T11:00:07;8.30;;;6.07;;
70228;SDS011;57617;51.988;5.854;2022-08-18T11:05:25;7.82;;;5.68;;
70228;SDS011;57617;51.988;5.854;2022-08-18T11:07:53;8.57;;;6.03;;
70228;SDS011;57617;51.988;5.854;2022-08-18T11:10:34;7.78;;;5.95;;
70228;SDS011;57617;51.988;5.854;2022-08-18T11:15:56;8.50;;;6.00;;
70228;SDS011;57617;51.988;5.854;2022-08-18T11:18:30;8.82;;;5.80;;
70228;SDS011;57617;51.988;5.854;2022-08-18T11:29:32;7.50;;;6.15;;
70228;SDS011;57617;51.988;5.854;2022-08-18T11:32:07;6.93;;;5.97;;
70228;SDS011;57617;51.988;5.854;2022-08-18T11:34:46;10.93;;;6.40;;
70228;SDS011;57617;51.988;5.854;2022-08-18T11:39:46;9.90;;;6.80;;
70228;SDS011;57617;51.988;5.854;2022-08-18T11:42:13;9.18;;;6.40;;
70228;SDS011;57617;51.988;5.854;2022-08-18T11:44:40;10.00;;;6.47;;
70228;SDS011;57617;51.988;5.854;2022-08-18T11:47:07;9.48;;;6.53;;
70228;SDS011;57617;51.988;5.854;2022-08-18T11:49:48;9.07;;;7.10;;
70228;SDS011;57617;51.988;5.854;2022-08-18T11:52:30;11.45;;;7.22;;
70228;SDS011;57617;51.988;5.854;2022-08-18T11:55:00;10.05;;;7.47;;
70228;SDS011;57617;51.988;5.854;2022-08-18T12:00:34;12.60;;;7.80;;
70228;SDS011;57617;51.988;5.854;2022-08-18T12:03:03;16.00;;;8.05;;
70228;SDS011;57617;51.988;5.854;2022-08-18T12:05:39;9.40;;;7.97;;
70228;SDS011;57617;51.988;5.854;2022-08-18T12:08:17;14.00;;;7.97;;
70228;SDS011;57617;51.988;5.854;2022-08-18T12:10:46;11.60;;;7.35;;
70228;SDS011;57617;51.988;5.854;2022-08-18T12:13:19;9.75;;;7.22;;
70228;SDS011;57617;51.988;5.854;2022-08-18T12:16:06;10.60;;;8.05;;
70228;SDS011;57617;51.988;5.854;2022-08-18T12:18:32;13.50;;;7.65;;
70228;SDS011;57617;51.988;5.854;2022-08-18T12:20:57;11.05;;;7.60;;
70228;SDS011;57617;51.988;5.854;2022-08-18T12:23:23;9.73;;;7.68;;
70228;SDS011;57617;51.988;5.854;2022-08-18T12:25:48;11.10;;;7.30;;
70228;SDS011;57617;51.988;5.854;2022-08-18T12:28:18;12.18;;;7.38;;
70228;SDS011;57617;51.988;5.854;2022-08-18T12:30:44;9.50;;;7.28;;
70228;SDS011;57617;51.988;5.854;2022-08-18T12:33:09;10.38;;;7.53;;
70228;SDS011;57617;51.988;5.854;2022-08-18T12:35:34;9.65;;;7.00;;
70228;SDS011;57617;51.988;5.854;2022-08-18T12:38:00;10.95;;;7.30;;
70228;SDS011;57617;51.988;5.854;2022-08-18T12:40:25;9.80;;;7.43;;
70228;SDS011;57617;51.988;5.854;2022-08-18T12:42:50;10.05;;;7.10;;
70228;SDS011;57617;51.988;5.854;2022-08-18T12:45:15;10.27;;;6.80;;
70228;SDS011;57617;51.988;5.854;2022-08-18T12:47:41;10.13;;;7.00;;
70228;SDS011;57617;51.988;5.854;2022-08-18T12:50:06;9.52;;;7.70;;
70228;SDS011;57617;51.988;5.854;2022-08-18T12:52:32;11.50;;;7.57;;
70228;SDS011;57617;51.988;5.854;2022-08-18T12:54:57;11.90;;;7.05;;
70228;SDS011;57617;51.988;5.854;2022-08-18T12:57:23;11.27;;;6.93;;
70228;SDS011;57617;51.988;5.854;2022-08-18T12:59:50;9.05;;;6.82;;
70228;SDS011;57617;51.988;5.854;2022-08-18T13:02:16;11.00;;;7.47;;
70228;SDS011;57617;51.988;5.854;2022-08-18T13:04:41;10.25;;;7.03;;
70228;SDS011;57617;51.988;5.854;2022-08-18T13:07:07;12.18;;;7.32;;
70228;SDS011;57617;51.988;5.854;2022-08-18T13:09:36;13.98;;;8.13;;
70228;SDS011;57617;51.988;5.854;2022-08-18T13:12:02;12.20;;;7.95;;
70228;SDS011;57617;51.988;5.854;2022-08-18T13:14:28;9.15;;;7.38;;
70228;SDS011;57617;51.988;5.854;2022-08-18T13:16:53;13.35;;;7.63;;
70228;SDS011;57617;51.988;5.854;2022-08-18T13:19:18;10.70;;;7.53;;
70228;SDS011;57617;51.988;5.854;2022-08-18T13:21:44;10.32;;;7.60;;
70228;SDS011;57617;51.988;5.854;2022-08-18T13:24:09;9.43;;;7.38;;
70228;SDS011;57617;51.988;5.854;2022-08-18T13:26:36;8.18;;;7.28;;
70228;SDS011;57617;51.988;5.854;2022-08-18T13:29:05;19.92;;;7.80;;
70228;SDS011;57617;51.988;5.854;2022-08-18T13:31:30;10.93;;;7.35;;
70228;SDS011;57617;51.988;5.854;2022-08-18T13:33:57;10.52;;;7.45;;
70228;SDS011;57617;51.988;5.854;2022-08-18T13:36:23;9.35;;;7.30;;
70228;SDS011;57617;51.988;5.854;2022-08-18T13:38:50;9.95;;;7.85;;
70228;SDS011;57617;51.988;5.854;2022-08-18T13:41:17;8.80;;;7.07;;
70228;SDS011;57617;51.988;5.854;2022-08-18T13:43:44;8.45;;;7.43;;
70228;SDS011;57617;51.988;5.854;2022-08-18T13:46:12;10.27;;;7.72;;
70228;SDS011;57617;51.988;5.854;2022-08-18T13:48:40;12.68;;;8.27;;
70228;SDS011;57617;51.988;5.854;2022-08-18T13:51:07;10.20;;;7.75;;
70228;SDS011;57617;51.988;5.854;2022-08-18T13:53:36;12.65;;;7.43;;
70228;SDS011;57617;51.988;5.854;2022-08-18T13:56:03;10.85;;;7.97;;
70228;SDS011;57617;51.988;5.854;2022-08-18T13:58:29;11.00;;;7.80;;
70228;SDS011;57617;51.988;5.854;2022-08-18T14:00:58;14.55;;;7.75;;
70228;SDS011;57617;51.988;5.854;2022-08-18T14:03:31;10.80;;;7.90;;
70228;SDS011;57617;51.988;5.854;2022-08-18T14:05:56;8.57;;;7.10;;
70228;SDS011;57617;51.988;5.854;2022-08-18T14:08:24;7.68;;;6.80;;
70228;SDS011;57617;51.988;5.854;2022-08-18T14:10:51;10.25;;;7.40;;
70228;SDS011;57617;51.988;5.854;2022-08-18T14:13:18;11.15;;;7.57;;
70228;SDS011;57617;51.988;5.854;2022-08-18T14:15:44;11.32;;;7.07;;
70228;SDS011;57617;51.988;5.854;2022-08-18T14:18:10;11.27;;;7.35;;
70228;SDS011;57617;51.988;5.854;2022-08-18T14:20:36;10.25;;;7.20;;
70228;SDS011;57617;51.988;5.854;2022-08-18T14:23:20;12.63;;;7.00;;
70228;SDS011;57617;51.988;5.854;2022-08-18T14:26:04;8.45;;;6.40;;
70228;SDS011;57617;51.988;5.854;2022-08-18T14:28:48;10.20;;;7.50;;
70228;SDS011;57617;51.988;5.854;2022-08-18T14:31:14;10.35;;;7.00;;
70228;SDS011;57617;51.988;5.854;2022-08-18T14:33:39;8.32;;;6.90;;
70228;SDS011;57617;51.988;5.854;2022-08-18T14:36:05;9.57;;;6.57;;
70228;SDS011;57617;51.988;5.854;2022-08-18T14:38:31;10.90;;;6.30;;
70228;SDS011;57617;51.988;5.854;2022-08-18T14:40:57;8.13;;;6.35;;
70228;SDS011;57617;51.988;5.854;2022-08-18T14:43:27;8.57;;;6.20;;
70228;SDS011;57617;51.988;5.854;2022-08-18T14:45:52;11.13;;;6.07;;
70228;SDS011;57617;51.988;5.854;2022-08-18T14:48:19;8.00;;;5.93;;
70228;SDS011;57617;51.988;5.854;2022-08-18T14:50:47;8.93;;;6.10;;
70228;SDS011;57617;51.988;5.854;2022-08-18T14:53:18;8.32;;;6.32;;
70228;SDS011;57617;51.988;5.854;2022-08-18T14:55:46;9.77;;;6.47;;
70228;SDS011;57617;51.988;5.854;2022-08-18T14:58:16;8.75;;;6.30;;
70228;SDS011;57617;51.988;5.854;2022-08-18T15:00:41;8.57;;;6.38;;
70228;SDS011;57617;51.988;5.854;2022-08-18T15:03:06;9.43;;;6.07;;
70228;SDS011;57617;51.988;5.854;2022-08-18T15:05:31;7.10;;;5.82;;
70228;SDS011;57617;51.988;5.854;2022-08-18T15:07:57;8.02;;;5.63;;
70228;SDS011;57617;51.988;5.854;2022-08-18T15:10:24;6.50;;;5.50;;
70228;SDS011;57617;51.988;5.854;2022-08-18T15:12:49;6.70;;;5.93;;
70228;SDS011;57617;51.988;5.854;2022-08-18T15:15:15;6.88;;;5.75;;
70228;SDS011;57617;51.988;5.854;2022-08-18T15:17:41;8.68;;;5.65;;
70228;SDS011;57617;51.988;5.854;2022-08-18T15:20:07;6.22;;;5.18;;
70228;SDS011;57617;51.988;5.854;2022-08-18T15:22:37;7.30;;;4.88;;
70228;SDS011;57617;51.988;5.854;2022-08-18T15:25:26;8.23;;;4.90;;
70228;SDS011;57617;51.988;5.854;2022-08-18T15:28:08;10.15;;;5.28;;
70228;SDS011;57617;51.988;5.854;2022-08-18T15:30:45;6.13;;;5.53;;
70228;SDS011;57617;51.988;5.854;2022-08-18T15:33:13;9.23;;;5.63;;
70228;SDS011;57617;51.988;5.854;2022-08-18T15:35:40;8.85;;;5.15;;
70228;SDS011;57617;51.988;5.854;2022-08-18T15:38:07;7.57;;;5.05;;
70228;SDS011;57617;51.988;5.854;2022-08-18T15:40:34;7.00;;;5.40;;
70228;SDS011;57617;51.988;5.854;2022-08-18T15:42:59;7.75;;;5.32;;
70228;SDS011;57617;51.988;5.854;2022-08-18T15:45:33;8.93;;;5.70;;
70228;SDS011;57617;51.988;5.854;2022-08-18T15:48:01;6.45;;;5.80;;
70228;SDS011;57617;51.988;5.854;2022-08-18T15:50:27;6.47;;;5.30;;
70228;SDS011;57617;51.988;5.854;2022-08-18T15:52:54;6.65;;;5.50;;
70228;SDS011;57617;51.988;5.854;2022-08-18T15:55:23;7.70;;;5.50;;
70228;SDS011;57617;51.988;5.854;2022-08-18T15:57:50;6.28;;;5.20;;
70228;SDS011;57617;51.988;5.854;2022-08-18T16:00:18;7.03;;;5.30;;
70228;SDS011;57617;51.988;5.854;2022-08-18T16:02:54;10.20;;;5.47;;
70228;SDS011;57617;51.988;5.854;2022-08-18T16:05:22;7.20;;;5.15;;
70228;SDS011;57617;51.988;5.854;2022-08-18T16:07:49;7.93;;;5.88;;
70228;SDS011;57617;51.988;5.854;2022-08-18T16:10:16;9.27;;;5.60;;
70228;SDS011;57617;51.988;5.854;2022-08-18T16:12:43;6.30;;;5.00;;
70228;SDS011;57617;51.988;5.854;2022-08-18T16:15:10;8.95;;;5.53;;
70228;SDS011;57617;51.988;5.854;2022-08-18T16:17:35;8.82;;;5.65;;
70228;SDS011;57617;51.988;5.854;2022-08-18T16:20:01;9.05;;;5.30;;
70228;SDS011;57617;51.988;5.854;2022-08-18T16:22:27;8.98;;;6.00;;
70228;SDS011;57617;51.988;5.854;2022-08-18T16:24:53;6.88;;;5.50;;
70228;SDS011;57617;51.988;5.854;2022-08-18T16:27:18;8.63;;;5.60;;
70228;SDS011;57617;51.988;5.854;2022-08-18T16:29:44;6.95;;;5.38;;
70228;SDS011;57617;51.988;5.854;2022-08-18T16:32:10;9.57;;;5.53;;
70228;SDS011;57617;51.988;5.854;2022-08-18T16:34:35;6.60;;;5.00;;
70228;SDS011;57617;51.988;5.854;2022-08-18T16:37:01;8.98;;;5.38;;
70228;SDS011;57617;51.988;5.854;2022-08-18T16:39:26;7.43;;;5.22;;
70228;SDS011;57617;51.988;5.854;2022-08-18T16:41:51;9.93;;;5.80;;
70228;SDS011;57617;51.988;5.854;2022-08-18T16:44:17;8.63;;;4.93;;
70228;SDS011;57617;51.988;5.854;2022-08-18T16:46:43;5.68;;;5.00;;
70228;SDS011;57617;51.988;5.854;2022-08-18T16:49:08;8.75;;;5.10;;
70228;SDS011;57617;51.988;5.854;2022-08-18T16:51:34;7.40;;;5.00;;
70228;SDS011;57617;51.988;5.854;2022-08-18T16:54:00;7.00;;;4.82;;
70228;SDS011;57617;51.988;5.854;2022-08-18T16:56:27;6.55;;;4.80;;